Terminal Aerodrome Forecast
Issued by NWS Portland, ME

Home | Current Version | Previous Version | Text Only | Print | Product List | Glossary On
Versions: 1 2 3 4 5 6 7 8 9 10 11 12 13 14 15 16 17 18 19 20 21 22 23
000
FTUS41 KGYX 222331
TAFPWM
TAF
KPWM 222331Z 2300/2324 20005KT P6SM SCT250
     FM230600 VRB03KT P6SM BKN090
     FM231500 17008KT P6SM BKN080
     FM231800 18010G18KT P6SM BKN060 PROB30 2319/2324 3SM SHRA
      OVC040=

USA.gov is the U.S. government's official web portal to all federal, state and local government web resources and services.